sensor_id;sensor_type;location;lat;lon;timestamp;pressure;altitude;pressure_sealevel;temperature;humidity
19845;BME280;10083;51.038;7.012;2022-12-07T00:00:09;9394.34;;;5.00;75.40
19845;BME280;10083;51.038;7.012;2022-12-07T00:03:00;9379.13;;;5.02;75.39
19845;BME280;10083;51.038;7.012;2022-12-07T00:09:40;9602.03;;;5.01;75.41
19845;BME280;10083;51.038;7.012;2022-12-07T00:12:20;9474.50;;;4.99;75.41
19845;BME280;10083;51.038;7.012;2022-12-07T00:14:53;9221.06;;;5.03;75.40
19845;BME280;10083;51.038;7.012;2022-12-07T00:17:55;9155.25;;;5.10;75.41
19845;BME280;10083;51.038;7.012;2022-12-07T00:21:07;9353.44;;;5.03;75.40
19845;BME280;10083;51.038;7.012;2022-12-07T00:27:55;9439.34;;;5.05;75.39
19845;BME280;10083;51.038;7.012;2022-12-07T00:30:47;9400.22;;;5.04;75.39
19845;BME280;10083;51.038;7.012;2022-12-07T00:33:35;9333.28;;;5.06;75.41
19845;BME280;10083;51.038;7.012;2022-12-07T00:36:36;9423.56;;;5.04;75.40
19845;BME280;10083;51.038;7.012;2022-12-07T00:39:46;9410.47;;;5.03;75.40
19845;BME280;10083;51.038;7.012;2022-12-07T00:42:39;9393.03;;;5.06;75.41
19845;BME280;10083;51.038;7.012;2022-12-07T00:45:33;9421.31;;;5.05;75.40
19845;BME280;10083;51.038;7.012;2022-12-07T00:48:21;9379.59;;;5.04;75.40
19845;BME280;10083;51.038;7.012;2022-12-07T00:50:57;9199.13;;;5.09;75.40
19845;BME280;10083;51.038;7.012;2022-12-07T00:54:02;9406.09;;;5.07;75.41
19845;BME280;10083;51.038;7.012;2022-12-07T00:56:55;9438.66;;;5.01;75.40
19845;BME280;10083;51.038;7.012;2022-12-07T00:59:46;9462.47;;;5.04;75.39
19845;BME280;10083;51.038;7.012;2022-12-07T01:02:33;9485.81;;;5.04;75.40
19845;BME280;10083;51.038;7.012;2022-12-07T01:12:40;9690.31;;;5.02;75.40
19845;BME280;10083;51.038;7.012;2022-12-07T01:15:43;9743.69;;;4.97;75.40
19845;BME280;10083;51.038;7.012;2022-12-07T01:26:53;9959.91;;;5.01;75.40
19845;BME280;10083;51.038;7.012;2022-12-07T01:29:35;9850.50;;;4.99;75.41
19845;BME280;10083;51.038;7.012;2022-12-07T01:33:23;10053.00;;;5.00;75.42
19845;BME280;10083;51.038;7.012;2022-12-07T01:40:13;10027.81;;;5.04;75.40
19845;BME280;10083;51.038;7.012;2022-12-07T01:46:45;10117.84;;;5.00;75.40
19845;BME280;10083;51.038;7.012;2022-12-07T01:49:29;9959.91;;;5.01;75.40
19845;BME280;10083;51.038;7.012;2022-12-07T01:52:42;10027.19;;;5.01;75.40
19845;BME280;10083;51.038;7.012;2022-12-07T01:55:24;9905.31;;;5.01;75.40
19845;BME280;10083;51.038;7.012;2022-12-07T01:57:56;9807.13;;;5.03;75.40
19845;BME280;10083;51.038;7.012;2022-12-07T02:04:52;10180.59;;;5.03;75.40
19845;BME280;10083;51.038;7.012;2022-12-07T02:07:36;10099.56;;;5.00;75.41
19845;BME280;10083;51.038;7.012;2022-12-07T02:10:22;10016.94;;;5.01;75.41
19845;BME280;10083;51.038;7.012;2022-12-07T02:13:06;9790.16;;;5.08;75.41
19845;BME280;10083;51.038;7.012;2022-12-07T02:16:36;10146.63;;;5.01;75.41
19845;BME280;10083;51.038;7.012;2022-12-07T02:19:44;10201.34;;;5.03;75.40
19845;BME280;10083;51.038;7.012;2022-12-07T02:29:47;10243.06;;;5.04;75.40
19845;BME280;10083;51.038;7.012;2022-12-07T02:32:49;10239.50;;;4.99;75.41
19845;BME280;10083;51.038;7.012;2022-12-07T02:39:22;10421.41;;;5.01;75.40
19845;BME280;10083;51.038;7.012;2022-12-07T02:43:04;10509.97;;;5.03;75.40
19845;BME280;10083;51.038;7.012;2022-12-07T02:45:39;10240.25;;;5.03;75.40
19845;BME280;10083;51.038;7.012;2022-12-07T02:48:34;10201.81;;;5.05;75.40
19845;BME280;10083;51.038;7.012;2022-12-07T02:55:28;10748.75;;;5.03;75.40
19845;BME280;10083;51.038;7.012;2022-12-07T02:58:39;10619.31;;;5.04;75.40
19845;BME280;10083;51.038;7.012;2022-12-07T03:01:30;10681.06;;;5.02;75.40
19845;BME280;10083;51.038;7.012;2022-12-07T03:04:21;10634.88;;;5.04;75.41
19845;BME280;10083;51.038;7.012;2022-12-07T03:07:23;10597.34;;;5.10;75.41
19845;BME280;10083;51.038;7.012;2022-12-07T03:10:23;10659.22;;;5.08;75.41
19845;BME280;10083;51.038;7.012;2022-12-07T04:15:00;5184.03;;;4.90;75.40
19845;BME280;10083;51.038;7.012;2022-12-07T04:17:30;5199.09;;;4.87;75.39
19845;BME280;10083;51.038;7.012;2022-12-07T04:20:02;5197.22;;;4.92;75.40
19845;BME280;10083;51.038;7.012;2022-12-07T04:22:35;5334.25;;;4.90;75.40
19845;BME280;10083;51.038;7.012;2022-12-07T04:25:24;5862.44;;;4.89;75.39
19845;BME280;10083;51.038;7.012;2022-12-07T04:27:55;5950.16;;;4.87;75.41
19845;BME280;10083;51.038;7.012;2022-12-07T04:30:45;6121.19;;;4.88;75.41
19845;BME280;10083;51.038;7.012;2022-12-07T04:33:49;6250.78;;;4.88;75.40
19845;BME280;10083;51.038;7.012;2022-12-07T04:36:20;6334.03;;;4.90;75.41
19845;BME280;10083;51.038;7.012;2022-12-07T04:39:22;6499.94;;;4.91;75.40
19845;BME280;10083;51.038;7.012;2022-12-07T04:45:11;6598.75;;;4.93;75.40
19845;BME280;10083;51.038;7.012;2022-12-07T04:50:50;6991.41;;;4.87;75.39
19845;BME280;10083;51.038;7.012;2022-12-07T04:56:37;7278.59;;;4.85;75.40
19845;BME280;10083;51.038;7.012;2022-12-07T05:02:23;7572.88;;;4.79;75.40
19845;BME280;10083;51.038;7.012;2022-12-07T05:05:00;7542.28;;;4.82;75.40
19845;BME280;10083;51.038;7.012;2022-12-07T05:08:24;7803.66;;;4.80;75.40
19845;BME280;10083;51.038;7.012;2022-12-07T05:15:32;8230.91;;;4.79;75.40
19845;BME280;10083;51.038;7.012;2022-12-07T05:18:11;8155.44;;;4.77;75.39
19845;BME280;10083;51.038;7.012;2022-12-07T05:20:41;8157.72;;;4.76;75.40
19845;BME280;10083;51.038;7.012;2022-12-07T05:23:19;8145.06;;;4.77;75.39
19845;BME280;10083;51.038;7.012;2022-12-07T05:26:25;8261.34;;;4.76;75.38
19845;BME280;10083;51.038;7.012;2022-12-07T05:29:12;8249.25;;;4.80;75.39
19845;BME280;10083;51.038;7.012;2022-12-07T05:32:09;8352.78;;;4.79;75.40
19845;BME280;10083;51.038;7.012;2022-12-07T05:35:39;8657.72;;;4.75;75.40
19845;BME280;10083;51.038;7.012;2022-12-07T05:38:52;8529.00;;;4.79;75.39
19845;BME280;10083;51.038;7.012;2022-12-07T05:41:46;8627.16;;;4.78;75.40
19845;BME280;10083;51.038;7.012;2022-12-07T05:51:23;8984.25;;;4.75;75.40
19845;BME280;10083;51.038;7.012;2022-12-07T05:53:54;8764.19;;;4.76;75.40
19845;BME280;10083;51.038;7.012;2022-12-07T05:56:25;8695.09;;;4.80;75.39
19845;BME280;10083;51.038;7.012;2022-12-07T06:02:12;9189.88;;;4.68;75.38
19845;BME280;10083;51.038;7.012;2022-12-07T06:07:46;9488.50;;;4.59;75.38
19845;BME280;10083;51.038;7.012;2022-12-07T06:11:12;9885.66;;;4.51;75.36
19845;BME280;10083;51.038;7.012;2022-12-07T06:18:15;10459.19;;;4.33;75.36
19845;BME280;10083;51.038;7.012;2022-12-07T06:28:35;10690.03;;;4.34;75.36
19845;BME280;10083;51.038;7.012;2022-12-07T06:34:57;10536.81;;;4.43;75.36
19845;BME280;10083;51.038;7.012;2022-12-07T06:38:05;10318.16;;;4.50;75.37
19845;BME280;10083;51.038;7.012;2022-12-07T06:41:07;10331.38;;;4.51;75.38
19845;BME280;10083;51.038;7.012;2022-12-07T06:43:45;10221.56;;;4.47;75.37
19845;BME280;10083;51.038;7.012;2022-12-07T06:49:49;10357.53;;;4.52;75.36
19845;BME280;10083;51.038;7.012;2022-12-07T06:52:34;10326.69;;;4.53;75.37
19845;BME280;10083;51.038;7.012;2022-12-07T06:55:13;10311.38;;;4.54;75.37
19845;BME280;10083;51.038;7.012;2022-12-07T06:58:24;10545.72;;;4.48;75.38
19845;BME280;10083;51.038;7.012;2022-12-07T07:05:46;11112.38;;;4.34;75.36
19845;BME280;10083;51.038;7.012;2022-12-07T07:08:48;11161.88;;;4.35;75.36
19845;BME280;10083;51.038;7.012;2022-12-07T07:16:18;11207.38;;;4.41;75.37
19845;BME280;10083;51.038;7.012;2022-12-07T07:26:15;11150.63;;;4.42;75.36
19845;BME280;10083;51.038;7.012;2022-12-07T07:28:56;11007.69;;;4.40;75.37
19845;BME280;10083;51.038;7.012;2022-12-07T07:35:22;11000.69;;;4.43;75.36
19845;BME280;10083;51.038;7.012;2022-12-07T07:38:39;10978.53;;;4.48;75.37
19845;BME280;10083;51.038;7.012;2022-12-07T07:42:03;10850.88;;;4.55;75.38
19845;BME280;10083;51.038;7.012;2022-12-07T07:58:17;10863.03;;;4.63;75.37
19845;BME280;10083;51.038;7.012;2022-12-07T08:01:23;11010.91;;;4.63;75.37
19845;BME280;10083;51.038;7.012;2022-12-07T08:04:07;10966.97;;;4.64;75.39
19845;BME280;10083;51.038;7.012;2022-12-07T08:13:56;11002.22;;;4.70;75.40
19845;BME280;10083;51.038;7.012;2022-12-07T08:19:57;11107.75;;;4.67;75.39
19845;BME280;10083;51.038;7.012;2022-12-07T08:26:14;11243.84;;;4.62;75.38
19845;BME280;10083;51.038;7.012;2022-12-07T08:29:42;11093.63;;;4.72;75.39
19845;BME280;10083;51.038;7.012;2022-12-07T08:35:25;10837.66;;;4.85;75.41
19845;BME280;10083;51.038;7.012;2022-12-07T08:38:28;10673.97;;;4.94;75.41
19845;BME280;10083;51.038;7.012;2022-12-07T08:41:38;10811.03;;;4.93;75.40
19845;BME280;10083;51.038;7.012;2022-12-07T08:45:20;10871.34;;;4.95;75.41
19845;BME280;10083;51.038;7.012;2022-12-07T08:47:52;10698.06;;;4.97;75.40
19845;BME280;10083;51.038;7.012;2022-12-07T08:50:47;10729.19;;;4.97;75.41
19845;BME280;10083;51.038;7.012;2022-12-07T08:53:40;10788.34;;;4.95;75.42
19845;BME280;10083;51.038;7.012;2022-12-07T09:00:04;10631.94;;;5.13;75.43
19845;BME280;10083;51.038;7.012;2022-12-07T09:10:25;10678.06;;;5.21;75.43
19845;BME280;10083;51.038;7.012;2022-12-07T09:17:22;10728.00;;;5.24;75.44
19845;BME280;10083;51.038;7.012;2022-12-07T09:20:22;10634.84;;;5.25;75.44
19845;BME280;10083;51.038;7.012;2022-12-07T09:31:26;11130.47;;;5.15;75.43
19845;BME280;10083;51.038;7.012;2022-12-07T09:37:47;10852.56;;;5.24;75.43
19845;BME280;10083;51.038;7.012;2022-12-07T09:44:10;10040.25;;;5.66;75.48
19845;BME280;10083;51.038;7.012;2022-12-07T09:50:35;10003.22;;;5.74;75.48
19845;BME280;10083;51.038;7.012;2022-12-07T09:53:45;9846.53;;;5.81;75.50
19845;BME280;10083;51.038;7.012;2022-12-07T09:56:35;9868.69;;;5.76;75.50
19845;BME280;10083;51.038;7.012;2022-12-07T10:03:49;10021.34;;;5.85;75.50
19845;BME280;10083;51.038;7.012;2022-12-07T10:06:28;9778.44;;;5.90;75.51
19845;BME280;10083;51.038;7.012;2022-12-07T11:38:11;10252.56;;;6.28;75.54
19845;BME280;10083;51.038;7.012;2022-12-07T11:55:52;8022.53;;;7.62;75.66
19845;BME280;10083;51.038;7.012;2022-12-07T11:59:15;8543.72;;;7.28;75.64
19845;BME280;10083;51.038;7.012;2022-12-07T12:02:31;9086.78;;;7.02;75.62
19845;BME280;10083;51.038;7.012;2022-12-07T12:09:17;9377.09;;;6.97;75.61
19845;BME280;10083;51.038;7.012;2022-12-07T12:15:54;5636.53;;;8.88;75.79
19845;BME280;10083;51.038;7.012;2022-12-07T12:19:04;6444.38;;;8.57;75.76
19845;BME280;10083;51.038;7.012;2022-12-07T12:22:03;6878.56;;;8.10;75.70
19845;BME280;10083;51.038;7.012;2022-12-07T12:25:35;7705.38;;;7.64;75.66
19845;BME280;10083;51.038;7.012;2022-12-07T12:31:41;6991.44;;;7.88;75.68
19845;BME280;10083;51.038;7.012;2022-12-07T12:48:29;8001.16;;;7.35;75.63
19845;BME280;10083;51.038;7.012;2022-12-07T12:55:16;5672.47;;;8.70;75.76
19845;BME280;10083;51.038;7.012;2022-12-07T13:12:21;4980.63;;;9.61;75.84
19845;BME280;10083;51.038;7.012;2022-12-07T13:15:02;5757.41;;;8.94;75.79
19845;BME280;10083;51.038;7.012;2022-12-07T13:20:59;4687.34;;;9.37;75.82
19845;BME280;10083;51.038;7.012;2022-12-07T13:27:21;7033.94;;;7.79;75.66
19845;BME280;10083;51.038;7.012;2022-12-07T13:33:20;7621.38;;;7.22;75.62
19845;BME280;10083;51.038;7.012;2022-12-07T13:36:01;7459.91;;;7.21;75.63
19845;BME280;10083;51.038;7.012;2022-12-07T13:42:43;7535.09;;;6.94;75.60
19845;BME280;10083;51.038;7.012;2022-12-07T13:45:27;7682.53;;;6.77;75.60
19845;BME280;10083;51.038;7.012;2022-12-07T13:48:30;7555.56;;;6.79;75.59
19845;BME280;10083;51.038;7.012;2022-12-07T13:51:04;7770.72;;;6.63;75.58
19845;BME280;10083;51.038;7.012;2022-12-07T13:53:51;7647.47;;;6.58;75.58
19845;BME280;10083;51.038;7.012;2022-12-07T13:59:51;7601.19;;;6.47;75.58
19845;BME280;10083;51.038;7.012;2022-12-07T14:02:52;7482.88;;;6.40;75.56
19845;BME280;10083;51.038;7.012;2022-12-07T14:05:34;7226.50;;;6.44;75.57
19845;BME280;10083;51.038;7.012;2022-12-07T14:08:46;7234.09;;;6.43;75.56
19845;BME280;10083;51.038;7.012;2022-12-07T14:11:31;7180.97;;;6.37;75.56
19845;BME280;10083;51.038;7.012;2022-12-07T14:14:32;6997.72;;;6.43;75.57
19845;BME280;10083;51.038;7.012;2022-12-07T14:17:26;7065.91;;;6.33;75.56
19845;BME280;10083;51.038;7.012;2022-12-07T14:20:33;6902.50;;;6.34;75.56
19845;BME280;10083;51.038;7.012;2022-12-07T14:23:26;6723.69;;;6.36;75.56
19845;BME280;10083;51.038;7.012;2022-12-07T14:26:10;6673.22;;;6.30;75.57
19845;BME280;10083;51.038;7.012;2022-12-07T14:29:18;6512.59;;;6.32;75.56
19845;BME280;10083;51.038;7.012;2022-12-07T14:32:46;6566.94;;;6.31;75.56
19845;BME280;10083;51.038;7.012;2022-12-07T14:35:24;6352.34;;;6.36;75.58
19845;BME280;10083;51.038;7.012;2022-12-07T14:38:26;6295.03;;;6.35;75.58
19845;BME280;10083;51.038;7.012;2022-12-07T14:41:17;6393.88;;;6.36;75.58
19845;BME280;10083;51.038;7.012;2022-12-07T14:44:15;6691.41;;;6.30;75.56
19845;BME280;10083;51.038;7.012;2022-12-07T14:46:53;6795.38;;;6.30;75.56
19845;BME280;10083;51.038;7.012;2022-12-07T14:49:50;6939.72;;;6.25;75.56
19845;BME280;10083;51.038;7.012;2022-12-07T14:52:25;6991.84;;;6.26;75.56
19845;BME280;10083;51.038;7.012;2022-12-07T14:55:04;6994.06;;;6.24;75.58
19845;BME280;10083;51.038;7.012;2022-12-07T14:57:42;7033.88;;;6.15;75.55
19845;BME280;10083;51.038;7.012;2022-12-07T15:00:30;7027.91;;;6.11;75.56
19845;BME280;10083;51.038;7.012;2022-12-07T15:03:53;6872.53;;;6.13;75.56
19845;BME280;10083;51.038;7.012;2022-12-07T15:06:36;6734.75;;;6.12;75.55
19845;BME280;10083;51.038;7.012;2022-12-07T15:09:12;6562.97;;;6.09;75.54
19845;BME280;10083;51.038;7.012;2022-12-07T15:12:15;6485.28;;;6.10;75.55
19845;BME280;10083;51.038;7.012;2022-12-07T15:15:15;6552.03;;;6.06;75.55
19845;BME280;10083;51.038;7.012;2022-12-07T15:18:05;6471.75;;;6.07;75.54
19845;BME280;10083;51.038;7.012;2022-12-07T15:20:55;6428.09;;;6.10;75.55
19845;BME280;10083;51.038;7.012;2022-12-07T15:23:50;6427.72;;;6.08;75.55
19845;BME280;10083;51.038;7.012;2022-12-07T15:26:28;6390.47;;;6.03;75.54
19845;BME280;10083;51.038;7.012;2022-12-07T15:29:12;6464.38;;;5.95;75.54
19845;BME280;10083;51.038;7.012;2022-12-07T15:32:04;6458.72;;;5.93;75.52
19845;BME280;10083;51.038;7.012;2022-12-07T15:34:33;6362.06;;;5.89;75.53
19845;BME280;10083;51.038;7.012;2022-12-07T15:37:23;6428.38;;;5.68;75.51
19845;BME280;10083;51.038;7.012;2022-12-07T15:40:16;6543.72;;;5.61;75.51
19845;BME280;10083;51.038;7.012;2022-12-07T15:43:13;7042.59;;;5.38;75.48
19845;BME280;10083;51.038;7.012;2022-12-07T15:50:04;7160.69;;;5.32;75.49
19845;BME280;10083;51.038;7.012;2022-12-07T15:56:16;6878.56;;;5.34;75.49
19845;BME280;10083;51.038;7.012;2022-12-07T15:59:37;6974.69;;;5.35;75.50
19845;BME280;10083;51.038;7.012;2022-12-07T16:02:38;7011.66;;;5.39;75.51
19845;BME280;10083;51.038;7.012;2022-12-07T16:08:51;6937.44;;;5.30;75.50
19845;BME280;10083;51.038;7.012;2022-12-07T16:11:38;6947.03;;;5.26;75.50
19845;BME280;10083;51.038;7.012;2022-12-07T16:14:23;6900.09;;;5.25;75.49
19845;BME280;10083;51.038;7.012;2022-12-07T16:17:17;6821.56;;;5.21;75.49
19845;BME280;10083;51.038;7.012;2022-12-07T16:19:48;6800.19;;;5.17;75.49
19845;BME280;10083;51.038;7.012;2022-12-07T16:22:50;6573.00;;;5.22;75.49
19845;BME280;10083;51.038;7.012;2022-12-07T16:25:47;6497.94;;;5.23;75.49
19845;BME280;10083;51.038;7.012;2022-12-07T16:28:25;6479.44;;;5.21;75.49
19845;BME280;10083;51.038;7.012;2022-12-07T16:31:00;6358.25;;;5.24;75.49
19845;BME280;10083;51.038;7.012;2022-12-07T16:33:39;6314.19;;;5.24;75.49
19845;BME280;10083;51.038;7.012;2022-12-07T16:36:25;6103.34;;;5.34;75.50
19845;BME280;10083;51.038;7.012;2022-12-07T16:38:54;5923.25;;;5.27;75.50
19845;BME280;10083;51.038;7.012;2022-12-07T16:41:22;5837.72;;;5.27;75.49
19845;BME280;10083;51.038;7.012;2022-12-07T16:43:53;5892.25;;;5.27;75.49
19845;BME280;10083;51.038;7.012;2022-12-07T16:46:21;5736.81;;;5.28;75.49
19845;BME280;10083;51.038;7.012;2022-12-07T16:48:53;5889.31;;;5.25;75.48
19845;BME280;10083;51.038;7.012;2022-12-07T16:51:20;5840.31;;;5.27;75.50
19845;BME280;10083;51.038;7.012;2022-12-07T16:53:48;5778.63;;;5.30;75.49
19845;BME280;10083;51.038;7.012;2022-12-07T16:56:23;5781.16;;;5.29;75.49
19845;BME280;10083;51.038;7.012;2022-12-07T16:58:52;5703.81;;;5.32;75.50
19845;BME280;10083;51.038;7.012;2022-12-07T17:01:22;5538.44;;;5.35;75.49
19845;BME280;10083;51.038;7.012;2022-12-07T17:04:15;5522.47;;;5.32;75.50
19845;BME280;10083;51.038;7.012;2022-12-07T17:06:42;5564.03;;;5.33;75.50
19845;BME280;10083;51.038;7.012;2022-12-07T17:09:25;5512.59;;;5.35;75.50
19845;BME280;10083;51.038;7.012;2022-12-07T17:11:56;5429.44;;;5.34;75.50
19845;BME280;10083;51.038;7.012;2022-12-07T17:14:25;5357.75;;;5.39;75.50
19845;BME280;10083;51.038;7.012;2022-12-07T17:17:11;5396.47;;;5.38;75.50
19845;BME280;10083;51.038;7.012;2022-12-07T17:19:42;5447.91;;;5.36;75.50
19845;BME280;10083;51.038;7.012;2022-12-07T17:22:11;5367.38;;;5.35;75.50
19845;BME280;10083;51.038;7.012;2022-12-07T17:24:41;5395.06;;;5.30;75.49
19845;BME280;10083;51.038;7.012;2022-12-07T17:27:15;5330.38;;;5.30;75.50
19845;BME280;10083;51.038;7.012;2022-12-07T17:29:59;5278.44;;;5.30;75.50
19845;BME280;10083;51.038;7.012;2022-12-07T17:32:35;5273.09;;;5.29;75.49
19845;BME280;10083;51.038;7.012;2022-12-07T17:35:08;5180.31;;;5.32;75.49
19845;BME280;10083;51.038;7.012;2022-12-07T17:37:36;5019.47;;;5.31;75.49
19845;BME280;10083;51.038;7.012;2022-12-07T17:40:10;4986.09;;;5.33;75.50
19845;BME280;10083;51.038;7.012;2022-12-07T17:42:39;4942.59;;;5.36;75.50
19845;BME280;10083;51.038;7.012;2022-12-07T17:45:17;4859.06;;;5.32;75.51
19845;BME280;10083;51.038;7.012;2022-12-07T17:47:50;4784.53;;;5.36;75.49
19845;BME280;10083;51.038;7.012;2022-12-07T17:50:18;4900.19;;;5.30;75.50
19845;BME280;10083;51.038;7.012;2022-12-07T17:53:11;4683.16;;;5.34;75.51
19845;BME280;10083;51.038;7.012;2022-12-07T17:55:40;4669.97;;;5.33;75.50
19845;BME280;10083;51.038;7.012;2022-12-07T17:58:10;4695.81;;;5.32;75.50
19845;BME280;10083;51.038;7.012;2022-12-07T18:00:38;4618.22;;;5.33;75.51
19845;BME280;10083;51.038;7.012;2022-12-07T18:03:15;4666.91;;;5.30;75.50
19845;BME280;10083;51.038;7.012;2022-12-07T18:07:03;4550.53;;;5.31;75.50
19845;BME280;10083;51.038;7.012;2022-12-07T18:09:01;4579.28;;;5.33;75.51
19845;BME280;10083;51.038;7.012;2022-12-07T18:11:33;4659.53;;;5.32;75.50
19845;BME280;10083;51.038;7.012;2022-12-07T18:14:06;4718.75;;;5.30;75.50
19845;BME280;10083;51.038;7.012;2022-12-07T18:16:35;4618.28;;;5.34;75.51
19845;BME280;10083;51.038;7.012;2022-12-07T18:19:04;4567.09;;;5.38;75.50
19845;BME280;10083;51.038;7.012;2022-12-07T18:21:42;4471.94;;;5.43;75.51
19845;BME280;10083;51.038;7.012;2022-12-07T18:24:22;4465.88;;;5.37;75.50
19845;BME280;10083;51.038;7.012;2022-12-07T18:26:49;4468.84;;;5.39;75.51
19845;BME280;10083;51.038;7.012;2022-12-07T18:29:47;4491.84;;;5.37;75.51
19845;BME280;10083;51.038;7.012;2022-12-07T18:32:53;4481.03;;;5.34;75.51
19845;BME280;10083;51.038;7.012;2022-12-07T18:35:37;4504.44;;;5.35;75.51
19845;BME280;10083;51.038;7.012;2022-12-07T18:38:52;4284.94;;;5.40;75.52
19845;BME280;10083;51.038;7.012;2022-12-07T18:41:51;4336.25;;;5.36;75.50
19845;BME280;10083;51.038;7.012;2022-12-07T18:47:35;4228.16;;;5.41;75.51
19845;BME280;10083;51.038;7.012;2022-12-07T18:50:22;4294.94;;;5.37;75.51
19845;BME280;10083;51.038;7.012;2022-12-07T18:53:01;4366.81;;;5.33;75.51
19845;BME280;10083;51.038;7.012;2022-12-07T18:55:40;4292.25;;;5.37;75.50
19845;BME280;10083;51.038;7.012;2022-12-07T18:58:50;4204.31;;;5.38;75.51
19845;BME280;10083;51.038;7.012;2022-12-07T19:01:40;4222.16;;;5.36;75.51
19845;BME280;10083;51.038;7.012;2022-12-07T19:05:11;4248.28;;;5.37;75.51
19845;BME280;10083;51.038;7.012;2022-12-07T19:07:44;4206.47;;;5.35;75.51
19845;BME280;10083;51.038;7.012;2022-12-07T19:10:22;4123.28;;;5.33;75.51
19845;BME280;10083;51.038;7.012;2022-12-07T19:12:53;4095.13;;;5.35;75.51
19845;BME280;10083;51.038;7.012;2022-12-07T19:15:25;4201.00;;;5.33;75.51
19845;BME280;10083;51.038;7.012;2022-12-07T19:18:06;4056.06;;;5.34;75.50
19845;BME280;10083;51.038;7.012;2022-12-07T19:23:50;3575.84;;;5.27;75.51
19845;BME280;10083;51.038;7.012;2022-12-07T19:26:40;3503.66;;;5.29;75.51
19845;BME280;10083;51.038;7.012;2022-12-07T19:29:14;3526.88;;;5.29;75.50
19845;BME280;10083;51.038;7.012;2022-12-07T19:32:07;3542.28;;;5.28;75.51
19845;BME280;10083;51.038;7.012;2022-12-07T19:34:44;3645.84;;;5.27;75.51
19845;BME280;10083;51.038;7.012;2022-12-07T19:37:21;3651.16;;;5.28;75.50
19845;BME280;10083;51.038;7.012;2022-12-07T19:40:27;3821.56;;;5.24;75.50
19845;BME280;10083;51.038;7.012;2022-12-07T19:43:01;3904.09;;;5.22;75.50
19845;BME280;10083;51.038;7.012;2022-12-07T19:45:38;3944.97;;;5.18;75.50
19845;BME280;10083;51.038;7.012;2022-12-07T19:48:24;3882.97;;;5.19;75.48
19845;BME280;10083;51.038;7.012;2022-12-07T19:57:41;4011.03;;;5.09;75.49
19845;BME280;10083;51.038;7.012;2022-12-07T20:00:28;4028.59;;;5.05;75.48
19845;BME280;10083;51.038;7.012;2022-12-07T20:03:01;3959.09;;;5.08;75.50
19845;BME280;10083;51.038;7.012;2022-12-07T20:05:45;4004.31;;;4.97;75.48
19845;BME280;10083;51.038;7.012;2022-12-07T20:08:43;4019.34;;;4.94;75.48
19845;BME280;10083;51.038;7.012;2022-12-07T20:11:23;4163.91;;;4.91;75.47
19845;BME280;10083;51.038;7.012;2022-12-07T20:14:24;4252.28;;;4.93;75.48
19845;BME280;10083;51.038;7.012;2022-12-07T20:17:17;4359.78;;;4.85;75.47
19845;BME280;10083;51.038;7.012;2022-12-07T20:19:54;4292.03;;;4.82;75.47
19845;BME280;10083;51.038;7.012;2022-12-07T20:22:33;4409.56;;;4.71;75.46
19845;BME280;10083;51.038;7.012;2022-12-07T20:25:28;4452.59;;;4.65;75.45
19845;BME280;10083;51.038;7.012;2022-12-07T20:28:06;4395.28;;;4.62;75.45
19845;BME280;10083;51.038;7.012;2022-12-07T20:30:52;4448.34;;;4.53;75.43
19845;BME280;10083;51.038;7.012;2022-12-07T20:33:38;4388.47;;;4.51;75.42
19845;BME280;10083;51.038;7.012;2022-12-07T20:36:35;4395.56;;;4.46;75.43
19845;BME280;10083;51.038;7.012;2022-12-07T20:39:10;4315.34;;;4.46;75.44
19845;BME280;10083;51.038;7.012;2022-12-07T20:41:59;4228.34;;;4.53;75.43
19845;BME280;10083;51.038;7.012;2022-12-07T20:44:47;4328.06;;;4.45;75.44
19845;BME280;10083;51.038;7.012;2022-12-07T20:47:38;4265.84;;;4.44;75.44
19845;BME280;10083;51.038;7.012;2022-12-07T20:50:14;4043.69;;;4.46;75.43
19845;BME280;10083;51.038;7.012;2022-12-07T20:53:06;3934.91;;;4.45;75.42
19845;BME280;10083;51.038;7.012;2022-12-07T20:55:48;3932.31;;;4.45;75.42
19845;BME280;10083;51.038;7.012;2022-12-07T20:58:29;3790.09;;;4.46;75.43
19845;BME280;10083;51.038;7.012;2022-12-07T21:01:27;3797.66;;;4.44;75.42
19845;BME280;10083;51.038;7.012;2022-12-07T21:04:03;3774.88;;;4.48;75.42
19845;BME280;10083;51.038;7.012;2022-12-07T21:06:54;3576.34;;;4.53;75.43
19845;BME280;10083;51.038;7.012;2022-12-07T21:09:46;3566.34;;;4.55;75.44
19845;BME280;10083;51.038;7.012;2022-12-07T21:12:24;3697.19;;;4.47;75.43
19845;BME280;10083;51.038;7.012;2022-12-07T21:15:03;3722.97;;;4.47;75.41
19845;BME280;10083;51.038;7.012;2022-12-07T21:17:59;3780.03;;;4.48;75.43
19845;BME280;10083;51.038;7.012;2022-12-07T21:20:44;3733.59;;;4.49;75.42
19845;BME280;10083;51.038;7.012;2022-12-07T21:23:34;3759.69;;;4.50;75.43
19845;BME280;10083;51.038;7.012;2022-12-07T21:26:58;3795.56;;;4.48;75.42
19845;BME280;10083;51.038;7.012;2022-12-07T21:29:36;3694.88;;;4.49;75.44
19845;BME280;10083;51.038;7.012;2022-12-07T21:32:35;3699.56;;;4.46;75.42
19845;BME280;10083;51.038;7.012;2022-12-07T21:35:34;3759.34;;;4.48;75.42
19845;BME280;10083;51.038;7.012;2022-12-07T21:38:20;3836.66;;;4.46;75.42
19845;BME280;10083;51.038;7.012;2022-12-07T21:41:52;3810.72;;;4.45;75.43
19845;BME280;10083;51.038;7.012;2022-12-07T21:44:26;3775.63;;;4.53;75.42
19845;BME280;10083;51.038;7.012;2022-12-07T21:47:16;3880.50;;;4.45;75.43
19845;BME280;10083;51.038;7.012;2022-12-07T21:49:58;4022.78;;;4.45;75.43
19845;BME280;10083;51.038;7.012;2022-12-07T21:53:05;4078.91;;;4.39;75.42
19845;BME280;10083;51.038;7.012;2022-12-07T21:55:38;3981.31;;;4.44;75.43
19845;BME280;10083;51.038;7.012;2022-12-07T21:58:23;4047.53;;;4.37;75.42
19845;BME280;10083;51.038;7.012;2022-12-07T22:01:27;3962.59;;;4.40;75.42
19845;BME280;10083;51.038;7.012;2022-12-07T22:04:30;3893.59;;;4.46;75.43
19845;BME280;10083;51.038;7.012;2022-12-07T22:07:18;3859.81;;;4.45;75.43
19845;BME280;10083;51.038;7.012;2022-12-07T22:10:06;3802.06;;;4.39;75.42
19845;BME280;10083;51.038;7.012;2022-12-07T22:12:43;3759.06;;;4.46;75.43
19845;BME280;10083;51.038;7.012;2022-12-07T22:15:16;3792.41;;;4.44;75.42
19845;BME280;10083;51.038;7.012;2022-12-07T22:17:52;3795.00;;;4.44;75.43
19845;BME280;10083;51.038;7.012;2022-12-07T22:23:17;3781.31;;;4.38;75.42
19845;BME280;10083;51.038;7.012;2022-12-07T22:25:55;3686.91;;;4.48;75.42
19845;BME280;10083;51.038;7.012;2022-12-07T22:28:45;3738.09;;;4.44;75.44
19845;BME280;10083;51.038;7.012;2022-12-07T22:31:28;3751.09;;;4.44;75.43
19845;BME280;10083;51.038;7.012;2022-12-07T22:34:18;3795.22;;;4.45;75.43